Date,TemperatureHighF,TemperatureAvgF,TemperatureLowF,DewpointHighF,DewpointAvgF,DewpointLowF,HumidityHigh,HumidityAvg,HumidityLow,PressureMaxIn,PressureMinIn,WindSpeedMaxMPH,WindSpeedAvgMPH,GustSpeedMaxMPH,PrecipitationSumIn
2013-1-1,79,72,65,63,60,57,84,66,54,30.07,29.91,16,4,0,0.00
2013-1-2,82,70,59,68,63,59,99,81,49,29.95,29.84,7,2,0,0.00
2013-1-3,81,73,66,68,67,65,99,83,62,30.00,29.88,8,3,0,0.00
2013-1-4,82,72,65,71,68,64,99,89,64,30.09,29.96,9,3,0,0.00
2013-1-5,75,69,64,71,68,64,99,96,83,30.11,30.01,8,3,0,0.10
2013-1-6,82,72,64,73,68,64,99,89,68,30.04,29.90,12,3,0,0.00
2013-1-7,76,70,67,71,69,66,99,96,83,30.01,29.91,8,3,0,0.18
2013-1-8,82,75,69,74,71,69,99,89,74,30.06,29.93,13,5,0,0.23
2013-1-9,82,77,73,72,71,69,96,82,72,30.14,30.02,19,7,0,0.00
2013-1-10,80,76,73,70,67,64,86,74,58,30.16,30.04,17,8,0,0.00
2013-1-11,81,75,72,70,68,67,89,79,68,30.12,30.01,12,6,0,0.00
2013-1-12,81,75,68,69,67,65,94,77,60,30.04,29.95,11,5,0,0.00
2013-1-13,81,75,70,68,66,62,87,73,58,29.99,29.93,14,6,0,0.00
2013-1-14,80,73,64,68,65,62,98,76,59,30.03,29.97,14,4,0,0.00
2013-1-15,79,72,65,68,66,64,99,81,67,29.99,29.90,12,4,0,0.00
2013-1-16,81,72,62,70,67,62,99,85,63,29.96,29.87,12,3,0,0.01
2013-1-17,81,71,61,72,66,52,99,85,68,29.95,29.83,20,5,0,0.04
2013-1-18,72,63,51,59,53,45,84,70,60,30.09,29.95,14,7,0,0.00
2013-1-19,72,69,65,69,64,59,99,87,69,30.08,29.96,8,3,0,0.32
2013-1-20,82,70,64,69,66,63,99,88,61,30.00,29.86,8,3,0,0.22
2013-1-21,78,70,65,72,68,64,99,92,72,29.92,29.81,7,3,0,0.20
2013-1-22,76,68,62,64,59,52,99,74,57,30.07,29.85,16,6,0,0.00
2013-1-23,74,67,60,58,55,52,85,67,46,30.16,30.05,13,6,0,0.00
2013-1-24,76,65,58,55,51,40,88,64,35,30.15,30.04,14,4,0,0.00
2013-1-25,77,66,57,60,55,51,90,70,50,30.15,30.03,9,3,0,0.00
2013-1-26,78,67,58,61,57,50,99,74,44,30.12,30.01,10,3,0,0.00
2013-1-27,78,70,60,63,60,58,99,73,52,30.15,30.06,14,5,0,0.00
2013-1-28,79,74,71,68,64,60,85,71,59,30.17,30.07,14,7,0,0.00
2013-1-29,79,74,70,71,68,66,99,82,71,30.09,29.97,12,5,0,0.01
2013-1-30,80,74,70,69,66,64,93,76,63,29.97,29.81,19,6,0,0.00
2013-1-31,72,66,57,71,58,40,99,78,48,30.04,29.80,13,5,0,0.01